Time;durP1;ratioP1;P1;durP2;ratioP2;P2;SDS_P1;SDS_P2;PMS_P1;PMS_P2;Temp;Humidity;BMP_temperature;BMP_pressure;BME280_temperature;BME280_humidity;BME280_pressure;Samples;Min_cycle;Max_cycle;Signal;HPM_P1;HPM_P2
2023/05/21 00:01:48;;;;;;;;;;;;;;;14.81;64.23;101757.09;4926943;29;3949;-73
2023/05/21 00:04:15;;;;;;;;;;;;;;;14.81;64.21;101770.66;4944580;29;2231;-73
2023/05/21 00:06:41;;;;;;;;;;;;;;;14.78;64.10;101766.47;4927729;29;3201;-73
2023/05/21 00:09:08;;;;;;;;;;;;;;;14.77;64.11;101756.69;4945158;28;1045;-73
2023/05/21 00:11:34;;;;;;;;;;;;;;;14.76;64.11;101760.44;4928517;29;1337;-73
2023/05/21 00:14:01;;;;;;;;;;;;;;;14.75;63.92;101762.31;4944235;29;1005;-73
2023/05/21 00:16:27;;;;;;;;;;;;;;;14.75;64.01;101761.50;4943488;29;2200;-73
2023/05/21 00:18:57;;;;;;;;;;;;;;;14.72;63.78;101757.34;4943467;28;4224;-73
2023/05/21 00:21:24;;;;;;;;;;;;;;;14.72;63.99;101762.75;4944424;28;1045;-74
2023/05/21 00:23:52;;;;;;;;;;;;;;;14.70;64.04;101754.00;4944769;29;1084;-73
2023/05/21 00:26:20;;;;;;;;;;;;;;;14.70;63.94;101758.59;4943763;29;2222;-73
2023/05/21 00:28:46;;;;;;;;;;;;;;;14.69;64.12;101760.47;4943980;29;1025;-73
2023/05/21 00:31:13;;;;;;;;;;;;;;;14.69;63.89;101756.94;4940196;28;2183;-73
2023/05/21 00:33:39;;;;;;;;;;;;;;;14.67;64.04;101753.63;4942353;29;1709;-74
2023/05/21 00:36:06;;;;;;;;;;;;;;;14.65;63.89;101750.31;4939443;29;2080;-74
2023/05/21 00:38:32;;;;;;;;;;;;;;;14.65;63.95;101755.72;4943906;29;1500;-73
2023/05/21 00:40:59;;;;;;;;;;;;;;;14.63;63.82;101755.94;4928273;29;1347;-73
2023/05/21 00:43:26;;;;;;;;;;;;;;;14.63;63.85;101758.66;4937757;29;2006;-73
2023/05/21 00:45:52;;;;;;;;;;;;;;;14.61;63.82;101757.19;4918373;29;2065;-73
2023/05/21 00:48:19;;;;;;;;;;;;;;;14.60;63.80;101753.66;4936909;29;1865;-73
2023/05/21 00:50:45;;;;;;;;;;;;;;;14.59;63.70;101759.28;4938153;29;2155;-73
2023/05/21 00:53:12;;;;;;;;;;;;;;;14.58;63.75;101749.50;4923375;29;1775;-73
2023/05/21 00:55:38;;;;;;;;;;;;;;;14.33;63.98;101717.72;4935495;29;1973;-73
2023/05/21 00:58:05;;;;;;;;;;;;;;;14.54;63.82;101755.34;4935592;29;1722;-73
2023/05/21 01:00:32;;;;;;;;;;;;;;;14.54;63.72;101754.53;4934572;28;2081;-73
2023/05/21 01:02:58;;;;;;;;;;;;;;;14.53;63.82;101750.16;4934995;29;3798;-73
2023/05/21 01:05:25;;;;;;;;;;;;;;;14.52;63.66;101752.03;4937173;29;1994;-73
2023/05/21 01:07:51;;;;;;;;;;;;;;;14.51;63.65;101752.22;4938386;28;2686;-73
2023/05/21 01:10:18;;;;;;;;;;;;;;;14.49;63.60;101755.13;4936259;29;1766;-73
2023/05/21 01:12:44;;;;;;;;;;;;;;;14.47;63.69;101757.25;4936277;29;1794;-73
2023/05/21 01:15:11;;;;;;;;;;;;;;;14.46;63.60;101755.56;4934740;28;2474;-73
2023/05/21 01:17:37;;;;;;;;;;;;;;;14.46;63.59;101755.56;4938224;29;1782;-73
2023/05/21 01:20:08;;;;;;;;;;;;;;;14.45;63.59;101755.81;4935439;28;2642;-73
2023/05/21 01:22:35;;;;;;;;;;;;;;;14.43;63.58;101749.75;4939193;29;1848;-73
2023/05/21 01:25:02;;;;;;;;;;;;;;;14.42;63.54;101757.06;4935441;29;2048;-74
2023/05/21 01:27:28;;;;;;;;;;;;;;;14.41;63.55;101754.56;4935610;29;1964;-75
2023/05/21 01:29:55;;;;;;;;;;;;;;;14.40;63.58;101752.91;4935709;28;1764;-73
2023/05/21 01:32:21;;;;;;;;;;;;;;;14.39;63.54;101762.09;4938350;29;1998;-74
2023/05/21 01:34:48;;;;;;;;;;;;;;;14.38;63.70;101763.13;4942367;29;1724;-72
2023/05/21 01:37:15;;;;;;;;;;;;;;;14.35;63.60;101753.53;4942584;29;1936;-73
2023/05/21 01:39:41;;;;;;;;;;;;;;;14.35;63.54;101763.53;4929120;29;1880;-73
2023/05/21 01:42:08;;;;;;;;;;;;;;;14.34;63.53;101759.19;4942072;29;1902;-73
2023/05/21 01:44:34;;;;;;;;;;;;;;;14.32;63.45;101757.53;4928069;29;2057;-73
2023/05/21 01:47:01;;;;;;;;;;;;;;;14.31;63.52;101755.03;4925728;29;1950;-73
2023/05/21 01:49:27;;;;;;;;;;;;;;;14.30;63.57;101764.22;4938236;29;2045;-73
2023/05/21 01:51:54;;;;;;;;;;;;;;;14.27;63.45;101760.03;4940333;29;1810;-73
2023/05/21 01:54:22;;;;;;;;;;;;;;;14.27;63.54;101757.34;4926858;28;1726;-73
2023/05/21 01:56:49;;;;;;;;;;;;;;;14.25;63.61;101759.41;4939483;29;2008;-73
2023/05/21 01:59:16;;;;;;;;;;;;;;;13.83;63.48;101688.53;4938272;28;2036;-73
2023/05/21 02:01:42;;;;;;;;;;;;;;;14.24;63.48;101752.34;4940286;29;2160;-73
2023/05/21 02:04:09;;;;;;;;;;;;;;;14.23;63.54;101752.53;4939783;29;1741;-74
2023/05/21 02:06:38;;;;;;;;;;;;;;;14.21;63.54;101743.81;4941466;28;2386;-73
2023/05/21 02:09:04;;;;;;;;;;;;;;;14.20;63.53;101755.69;4940832;29;1724;-73
2023/05/21 02:11:31;;;;;;;;;;;;;;;14.18;63.35;101750.50;4942386;29;1717;-73
2023/05/21 02:13:58;;;;;;;;;;;;;;;14.17;63.45;101748.00;4938566;28;1970;-73
2023/05/21 02:16:24;;;;;;;;;;;;;;;14.17;63.46;101745.28;4938516;29;1993;-73
2023/05/21 02:18:53;;;;;;;;;;;;;;;14.15;63.50;101745.50;4939713;28;1818;-73
2023/05/21 02:21:20;;;;;;;;;;;;;;;14.12;63.39;101743.22;4941718;29;1733;-72
2023/05/21 02:23:46;;;;;;;;;;;;;;;14.13;63.35;101752.19;4939238;28;1849;-73
2023/05/21 02:26:13;;;;;;;;;;;;;;;14.10;63.40;101748.03;4939992;29;1915;-73
2023/05/21 02:28:40;;;;;;;;;;;;;;;14.08;63.50;101753.63;4924176;29;2022;-73
2023/05/21 02:31:06;;;;;;;;;;;;;;;14.07;63.42;101748.47;4920471;29;4795;-75
2023/05/21 02:33:33;;;;;;;;;;;;;;;14.06;63.38;101753.03;4937985;29;1786;-73
2023/05/21 02:35:59;;;;;;;;;;;;;;;14.04;63.26;101744.28;4938166;29;3130;-73
2023/05/21 02:38:26;;;;;;;;;;;;;;;14.03;63.20;101750.75;4940326;29;1709;-73
2023/05/21 02:40:52;;;;;;;;;;;;;;;14.03;63.31;101748.06;4938591;28;2095;-74
2023/05/21 02:43:19;;;;;;;;;;;;;;;14.01;63.31;101743.88;4939735;28;1794;-73
2023/05/21 02:45:46;;;;;;;;;;;;;;;14.00;63.33;101742.22;4937060;28;2503;-73
2023/05/21 02:48:12;;;;;;;;;;;;;;;14.00;63.09;101753.03;4937527;29;3976;-73
2023/05/21 02:50:39;;;;;;;;;;;;;;;13.97;63.08;101745.34;4938708;29;2056;-74
2023/05/21 02:53:06;;;;;;;;;;;;;;;13.95;63.28;101742.88;4940932;29;1746;-74
2023/05/21 02:55:32;;;;;;;;;;;;;;;13.94;63.22;101745.78;4938926;29;1697;-74
2023/05/21 02:57:59;;;;;;;;;;;;;;;13.94;63.08;101743.06;4936887;29;1877;-73
2023/05/21 03:00:26;;;;;;;;;;;;;;;13.95;63.03;101750.16;4933939;29;2122;-73
2023/05/21 03:02:52;;;;;;;;;;;;;;;13.92;63.19;101750.59;4935454;29;2076;-73
2023/05/21 03:05:19;;;;;;;;;;;;;;;13.91;63.00;101743.50;4936919;29;2171;-73
2023/05/21 03:07:46;;;;;;;;;;;;;;;13.87;62.99;101740.38;4936507;29;1946;-74
2023/05/21 03:10:12;;;;;;;;;;;;;;;13.86;62.90;101744.16;4938364;29;2152;-74
2023/05/21 03:12:39;;;;;;;;;;;;;;;13.85;63.16;101735.19;4936618;29;2052;-73
2023/05/21 03:15:05;;;;;;;;;;;;;;;13.86;63.04;101736.03;4924269;29;2117;-73
2023/05/21 03:17:32;;;;;;;;;;;;;;;13.83;62.87;101734.56;4935756;29;2052;-73
2023/05/21 03:19:58;;;;;;;;;;;;;;;13.82;63.09;101737.47;4935940;28;2111;-74
2023/05/21 03:22:25;;;;;;;;;;;;;;;13.81;63.03;101741.22;4959787;28;2150;-74
2023/05/21 03:24:52;;;;;;;;;;;;;;;13.88;62.64;101730.38;4959582;28;2241;-73
2023/05/21 03:27:18;;;;;;;;;;;;;;;13.80;62.82;101736.88;4954889;28;2166;-74
2023/05/21 03:29:47;;;;;;;;;;;;;;;13.78;62.84;101734.38;4954577;28;2081;-74
2023/05/21 03:32:13;;;;;;;;;;;;;;;13.86;62.26;101736.03;4952546;28;3478;-74
2023/05/21 03:34:40;;;;;;;;;;;;;;;13.92;62.33;101734.34;4944675;28;2476;-74
2023/05/21 03:37:07;;;;;;;;;;;;;;;13.77;62.82;101738.13;4953251;28;1999;-74
2023/05/21 03:39:33;;;;;;;;;;;;;;;13.76;62.83;101736.44;4954365;28;2204;-74
2023/05/21 03:42:00;;;;;;;;;;;;;;;13.85;62.29;101724.38;4956836;28;2669;-73
2023/05/21 03:44:26;;;;;;;;;;;;;;;13.81;62.32;101738.53;4955020;28;2153;-73
2023/05/21 03:46:53;;;;;;;;;;;;;;;13.73;62.51;101727.91;4939653;28;2129;-73
2023/05/21 03:49:19;;;;;;;;;;;;;;;13.73;62.60;101727.91;4940108;28;2489;-75
2023/05/21 03:51:46;;;;;;;;;;;;;;;13.68;62.75;101725.88;4942271;28;2577;-73
2023/05/21 03:54:12;;;;;;;;;;;;;;;13.72;62.39;101726.28;4952148;28;2027;-73
2023/05/21 03:56:39;;;;;;;;;;;;;;;13.67;62.46;101728.78;4942950;28;2147;-74
2023/05/21 03:59:05;;;;;;;;;;;;;;;13.66;62.64;101733.34;4952789;28;2149;-75
2023/05/21 04:01:32;;;;;;;;;;;;;;;13.85;62.00;101727.06;4955038;28;2173;-74
2023/05/21 04:03:59;;;;;;;;;;;;;;;13.79;62.18;101727.06;4952846;28;2070;-74
2023/05/21 04:06:26;;;;;;;;;;;;;;;13.30;62.07;101650.78;4955644;28;2229;-75
2023/05/21 04:08:52;;;;;;;;;;;;;;;13.68;62.21;101731.28;4957135;28;2154;-74
2023/05/21 04:11:19;;;;;;;;;;;;;;;13.69;62.28;101734.81;4953425;28;2138;-75
2023/05/21 04:13:46;;;;;;;;;;;;;;;13.81;61.68;101735.81;4952790;28;2062;-74
2023/05/21 04:16:13;;;;;;;;;;;;;;;13.96;61.37;101732.88;4953270;28;2046;-73
2023/05/21 04:18:40;;;;;;;;;;;;;;;13.79;61.68;101732.47;4956921;28;2446;-74
2023/05/21 04:21:06;;;;;;;;;;;;;;;13.93;61.29;101736.81;4937794;29;2081;-73
2023/05/21 04:23:35;;;;;;;;;;;;;;;13.82;61.54;101732.06;4924432;29;2089;-74
2023/05/21 04:26:02;;;;;;;;;;;;;;;14.07;60.72;101732.19;4939054;29;2195;-73
2023/05/21 04:28:28;;;;;;;;;;;;;;;13.94;61.08;101734.94;4933313;28;2171;-74
2023/05/21 04:30:56;;;;;;;;;;;;;;;14.20;59.95;101731.31;4922260;29;2153;-74
2023/05/21 04:33:23;;;;;;;;;;;;;;;14.09;60.39;101730.13;4933602;29;2613;-72
2023/05/21 04:35:49;;;;;;;;;;;;;;;14.05;60.55;101739.69;4934826;29;2227;-74
2023/05/21 04:38:18;;;;;;;;;;;;;;;14.02;60.65;101730.13;4932579;29;2087;-74
2023/05/21 04:40:44;;;;;;;;;;;;;;;14.17;59.85;101737.97;4934774;29;2127;-76
2023/05/21 04:43:11;;;;;;;;;;;;;;;14.09;60.05;101730.13;4936094;28;2104;-73
2023/05/21 04:45:37;;;;;;;;;;;;;;;14.19;59.88;101735.06;4934843;28;2203;-75
2023/05/21 04:48:04;;;;;;;;;;;;;;;14.21;59.53;101733.81;4935778;28;2092;-74
2023/05/21 04:50:30;;;;;;;;;;;;;;;14.05;60.08;101739.69;4934275;29;2271;-75
2023/05/21 04:52:58;;;;;;;;;;;;;;;13.93;60.48;101741.41;4932961;29;2684;-75
2023/05/21 04:55:24;;;;;;;;;;;;;;;13.73;61.08;101736.88;4936036;29;2086;-74
2023/05/21 04:57:51;;;;;;;;;;;;;;;13.75;61.18;101740.22;4936424;29;2448;-74
2023/05/21 05:00:17;;;;;;;;;;;;;;;14.15;59.86;101739.22;4927703;28;4955;-73
2023/05/21 05:02:44;;;;;;;;;;;;;;;14.17;59.50;101735.28;4933183;29;3065;-73
2023/05/21 05:05:10;;;;;;;;;;;;;;;14.04;60.00;101740.75;4933473;28;2420;-73
2023/05/21 05:07:37;;;;;;;;;;;;;;;14.23;59.25;101729.00;4934122;28;2141;-73
2023/05/21 05:10:04;;;;;;;;;;;;;;;14.22;59.39;101745.47;4932102;29;2764;-75
2023/05/21 05:12:30;;;;;;;;;;;;;;;14.21;59.19;101733.81;4933041;29;2549;-73
2023/05/21 05:14:57;;;;;;;;;;;;;;;14.11;59.54;101728.00;4933060;29;2403;-73
2023/05/21 05:17:24;;;;;;;;;;;;;;;14.19;59.29;101740.50;4932708;28;3383;-75
2023/05/21 05:19:51;;;;;;;;;;;;;;;14.26;58.91;101738.56;4936307;28;1822;-73
2023/05/21 05:22:18;;;;;;;;;;;;;;;14.11;59.31;101735.31;4940924;29;2093;-73
2023/05/21 05:24:45;;;;;;;;;;;;;;;14.07;59.55;101732.19;4937204;29;1815;-73
2023/05/21 05:27:11;;;;;;;;;;;;;;;13.98;59.93;101737.03;4942219;28;2093;-74
2023/05/21 05:29:38;;;;;;;;;;;;;;;13.80;60.36;101740.41;4927138;29;1429;-73
2023/05/21 05:32:04;;;;;;;;;;;;;;;13.97;59.68;101739.94;4940670;28;2167;-73
2023/05/21 05:34:31;;;;;;;;;;;;;;;13.92;59.85;101745.19;4937969;29;1761;-73
2023/05/21 05:36:57;;;;;;;;;;;;;;;14.12;59.32;101734.25;4934672;29;1925;-73
2023/05/21 05:39:24;;;;;;;;;;;;;;;13.91;59.82;101736.19;4935484;29;1831;-73
2023/05/21 05:41:50;;;;;;;;;;;;;;;13.73;60.22;101733.34;4937443;29;1800;-73
2023/05/21 05:44:17;;;;;;;;;;;;;;;13.51;61.07;101728.19;4936933;29;2029;-75
2023/05/21 05:46:43;;;;;;;;;;;;;;;13.43;61.23;101735.69;4935918;29;2025;-74
2023/05/21 05:49:10;;;;;;;;;;;;;;;13.69;60.59;101735.63;4934937;29;2036;-74
2023/05/21 05:51:37;;;;;;;;;;;;;;;13.53;61.08;101744.19;4916072;29;2521;-75
2023/05/21 05:54:03;;;;;;;;;;;;;;;13.43;61.26;101736.50;4933446;29;2361;-73
2023/05/21 05:56:30;;;;;;;;;;;;;;;13.44;60.97;101734.63;4931210;28;2120;-75
2023/05/21 05:58:56;;;;;;;;;;;;;;;13.64;60.70;101733.56;4928062;29;2113;-74
2023/05/21 06:01:23;;;;;;;;;;;;;;;13.46;61.25;101727.16;4934535;29;3795;-73
2023/05/21 06:03:50;;;;;;;;;;;;;;;13.46;61.28;101732.56;4938277;28;2648;-72
2023/05/21 06:06:16;;;;;;;;;;;;;;;13.38;61.37;101730.88;4936173;28;2224;-73
2023/05/21 06:08:43;;;;;;;;;;;;;;;13.36;61.35;101724.88;4934014;29;2546;-74
2023/05/21 06:11:10;;;;;;;;;;;;;;;13.35;61.37;101721.34;4932986;29;2068;-73
2023/05/21 06:13:36;;;;;;;;;;;;;;;13.34;61.30;101724.25;4933924;29;2229;-72
2023/05/21 06:16:03;;;;;;;;;;;;;;;13.33;61.53;101728.84;4937478;29;2180;-73
2023/05/21 06:18:29;;;;;;;;;;;;;;;13.32;61.43;101719.03;4938369;28;2069;-73
2023/05/21 06:20:56;;;;;;;;;;;;;;;13.33;61.26;101728.84;4921918;29;2609;-72
2023/05/21 06:23:22;;;;;;;;;;;;;;;13.35;61.37;101726.75;4939164;29;2174;-73
2023/05/21 06:25:49;;;;;;;;;;;;;;;13.32;61.41;101735.25;4939282;29;2028;-74
2023/05/21 06:28:16;;;;;;;;;;;;;;;13.31;61.32;101725.50;4934912;29;2186;-74
2023/05/21 06:30:43;;;;;;;;;;;;;;;13.31;61.60;101727.38;4938451;29;2217;-74
2023/05/21 06:33:10;;;;;;;;;;;;;;;13.31;61.27;101730.91;4939838;29;2313;-74
2023/05/21 06:35:38;;;;;;;;;;;;;;;13.31;61.40;101727.38;4940121;28;1989;-74
2023/05/21 06:38:05;;;;;;;;;;;;;;;13.31;61.27;101733.59;4943251;28;1941;-73
2023/05/21 06:40:32;;;;;;;;;;;;;;;13.29;61.42;101729.44;4943255;28;2022;-74
2023/05/21 06:42:58;;;;;;;;;;;;;;;13.29;61.34;101730.28;4933941;28;4446;-75
2023/05/21 06:45:25;;;;;;;;;;;;;;;13.30;61.27;101733.84;4936793;28;2646;-74
2023/05/21 06:47:51;;;;;;;;;;;;;;;13.30;61.46;101736.53;4923404;29;2900;-74
2023/05/21 06:50:19;;;;;;;;;;;;;;;13.29;61.48;101732.97;4937316;28;2859;-74
2023/05/21 06:52:45;;;;;;;;;;;;;;;13.28;61.32;101736.72;4937120;28;2229;-74
2023/05/21 06:55:11;;;;;;;;;;;;;;;13.28;61.32;101738.59;4940058;29;2692;-74
2023/05/21 06:57:38;;;;;;;;;;;;;;;13.27;61.26;101732.38;4937527;28;2317;-74
2023/05/21 07:00:09;;;;;;;;;;;;;;;13.28;61.28;101742.13;4922898;29;2685;-74
2023/05/21 07:02:35;;;;;;;;;;;;;;;13.28;61.30;101742.13;4925199;29;2931;-75
2023/05/21 07:05:02;;;;;;;;;;;;;;;13.27;61.36;101740.50;4941823;28;2370;-75
2023/05/21 07:07:28;;;;;;;;;;;;;;;13.27;61.30;101742.38;4935208;29;2334;-75
2023/05/21 07:09:55;;;;;;;;;;;;;;;13.28;61.45;101749.44;4923139;29;2245;-73
2023/05/21 07:12:21;;;;;;;;;;;;;;;13.28;61.26;101747.56;4939701;28;2164;-73
2023/05/21 07:14:48;;;;;;;;;;;;;;;13.27;61.10;101745.91;4934540;28;2242;-75
2023/05/21 07:17:14;;;;;;;;;;;;;;;13.27;61.22;101751.31;4940182;28;2281;-73
2023/05/21 07:19:41;;;;;;;;;;;;;;;13.27;61.19;101747.78;4941422;29;2212;-74
2023/05/21 07:22:07;;;;;;;;;;;;;;;13.27;61.13;101745.06;4927302;29;2263;-74
2023/05/21 07:24:34;;;;;;;;;;;;;;;13.27;61.38;101747.78;4926902;29;2418;-74
2023/05/21 07:27:00;;;;;;;;;;;;;;;13.29;61.12;101745.69;4925136;29;2193;-75
2023/05/21 07:29:27;;;;;;;;;;;;;;;13.28;61.32;101733.19;4935364;28;5066;-75
2023/05/21 07:31:53;;;;;;;;;;;;;;;13.30;61.13;101750.06;4933669;29;4110;-75
2023/05/21 07:34:20;;;;;;;;;;;;;;;13.28;61.10;101747.56;4935691;29;2130;-75
2023/05/21 07:36:47;;;;;;;;;;;;;;;13.28;61.07;101742.13;4934193;29;3232;-75
2023/05/21 07:39:13;;;;;;;;;;;;;;;13.30;60.97;101742.78;4933129;29;2334;-74
2023/05/21 07:41:40;;;;;;;;;;;;;;;13.29;61.18;101746.50;4921337;29;2242;-75
2023/05/21 07:44:06;;;;;;;;;;;;;;;13.29;61.15;101743.78;4934556;29;2537;-74
2023/05/21 07:46:33;;;;;;;;;;;;;;;13.28;61.37;101744.84;4933551;28;2128;-74
2023/05/21 07:48:59;;;;;;;;;;;;;;;13.29;61.18;101743.78;4934042;28;3742;-75
2023/05/21 07:51:26;;;;;;;;;;;;;;;13.29;61.36;101748.38;4933847;29;2092;-74
2023/05/21 07:53:52;;;;;;;;;;;;;;;13.30;61.08;101741.94;4918725;29;2071;-75
2023/05/21 07:56:19;;;;;;;;;;;;;;;13.30;61.33;101744.66;4932591;29;2393;-75
2023/05/21 07:58:46;;;;;;;;;;;;;;;13.29;61.39;101738.38;4933774;29;2089;-74
2023/05/21 08:01:13;;;;;;;;;;;;;;;13.30;61.12;101747.34;4934656;29;2570;-75
2023/05/21 08:03:39;;;;;;;;;;;;;;;13.30;61.12;101745.47;4934017;29;2146;-74
2023/05/21 08:06:06;;;;;;;;;;;;;;;12.83;61.30;101670.78;4933654;28;2238;-75
2023/05/21 08:08:32;;;;;;;;;;;;;;;13.30;61.19;101745.47;4933426;29;2080;-74
2023/05/21 08:10:59;;;;;;;;;;;;;;;13.30;61.18;101745.47;4933090;29;2172;-75
2023/05/21 08:13:26;;;;;;;;;;;;;;;13.30;61.14;101745.47;4934313;29;2420;-75
2023/05/21 08:15:52;;;;;;;;;;;;;;;13.32;61.09;101746.09;4933681;28;2624;-75
2023/05/21 08:18:19;;;;;;;;;;;;;;;13.31;61.14;101747.13;4934261;28;2719;-74
2023/05/21 08:20:47;;;;;;;;;;;;;;;13.34;61.08;101743.19;4937178;28;2032;-74
2023/05/21 08:23:13;;;;;;;;;;;;;;;13.32;61.14;101748.78;4936128;28;2091;-75
2023/05/21 08:25:40;;;;;;;;;;;;;;;13.33;61.18;101744.22;4942390;28;2313;-75
2023/05/21 08:28:06;;;;;;;;;;;;;;;13.33;61.12;101747.78;4961495;28;2201;-74
2023/05/21 08:30:33;;;;;;;;;;;;;;;13.35;61.13;101739.44;4960394;28;2170;-74
2023/05/21 08:32:59;;;;;;;;;;;;;;;13.36;61.31;101746.53;4960412;28;2278;-75
2023/05/21 08:35:26;;;;;;;;;;;;;;;13.37;61.02;101742.75;4961990;28;2181;-74
2023/05/21 08:37:52;;;;;;;;;;;;;;;13.37;61.18;101743.59;4960263;28;2236;-74
2023/05/21 08:40:19;;;;;;;;;;;;;;;13.39;60.71;101751.50;4941672;28;3138;-74
2023/05/21 08:42:46;;;;;;;;;;;;;;;13.39;60.92;101749.63;4960575;28;2234;-75
2023/05/21 08:45:12;;;;;;;;;;;;;;;13.40;60.87;101747.75;4959554;28;2618;-74
2023/05/21 08:47:39;;;;;;;;;;;;;;;13.41;61.00;101744.00;4958769;28;2630;-75
2023/05/21 08:50:05;;;;;;;;;;;;;;;13.41;61.04;101744.00;4949783;28;2220;-74
2023/05/21 08:52:32;;;;;;;;;;;;;;;13.42;60.97;101748.38;4960068;28;2105;-73
2023/05/21 08:54:59;;;;;;;;;;;;;;;13.43;60.95;101744.63;4961708;28;2313;-74
2023/05/21 08:57:25;;;;;;;;;;;;;;;13.45;61.04;101747.97;4962505;28;2066;-74
2023/05/21 08:59:52;;;;;;;;;;;;;;;13.46;61.00;101748.78;4962902;28;2185;-74
2023/05/21 09:02:18;;;;;;;;;;;;;;;13.47;60.77;101743.19;4962345;28;2138;-75
2023/05/21 09:04:48;;;;;;;;;;;;;;;13.47;61.12;101736.91;4953410;28;2042;-73
2023/05/21 09:07:14;;;;;;;;;;;;;;;13.50;60.79;101739.19;4962819;28;1889;-74
2023/05/21 09:09:41;;;;;;;;;;;;;;;13.52;60.95;101735.25;4960760;28;2106;-73
2023/05/21 09:12:07;;;;;;;;;;;;;;;13.53;60.69;101734.22;4961663;28;2727;-74
2023/05/21 09:14:34;;;;;;;;;;;;;;;13.53;60.98;101741.47;4959138;28;2583;-74
2023/05/21 09:17:00;;;;;;;;;;;;;;;13.54;60.95;101733.16;4959489;28;2113;-75
2023/05/21 09:19:27;;;;;;;;;;;;;;;13.56;60.76;101730.25;4960153;28;2605;-74
2023/05/21 09:21:54;;;;;;;;;;;;;;;13.55;60.99;101724.00;4957345;28;2574;-75
2023/05/21 09:24:21;;;;;;;;;;;;;;;13.55;60.78;101725.88;4959310;28;2146;-75
2023/05/21 09:26:47;;;;;;;;;;;;;;;13.56;60.69;101720.28;4958908;28;2158;-75
2023/05/21 09:29:14;;;;;;;;;;;;;;;13.57;60.94;101729.22;4941839;28;2509;-74
2023/05/21 09:31:41;;;;;;;;;;;;;;;13.58;61.00;101725.47;4957073;28;4794;-74
2023/05/21 09:34:07;;;;;;;;;;;;;;;13.57;60.91;101724.63;4954964;28;3117;-75
2023/05/21 09:36:34;;;;;;;;;;;;;;;13.57;60.96;101729.22;4953773;28;2340;-74
2023/05/21 09:39:01;;;;;;;;;;;;;;;13.57;61.21;101730.03;4955495;28;2193;-75
2023/05/21 09:41:27;;;;;;;;;;;;;;;13.58;61.20;101728.16;4955737;28;2224;-74
2023/05/21 09:43:54;;;;;;;;;;;;;;;13.57;61.22;101726.50;4957000;28;2673;-74
2023/05/21 09:46:20;;;;;;;;;;;;;;;13.60;60.91;101721.50;4961983;28;2430;-74
2023/05/21 09:48:47;;;;;;;;;;;;;;;13.60;60.89;101720.66;4959336;28;2442;-74
2023/05/21 09:51:13;;;;;;;;;;;;;;;13.61;61.04;101722.31;4961357;28;2150;-75
2023/05/21 09:53:40;;;;;;;;;;;;;;;13.60;60.96;101716.09;4963317;28;2352;-75
2023/05/21 09:56:07;;;;;;;;;;;;;;;13.62;61.09;101722.13;4964775;28;2174;-75
2023/05/21 09:58:34;;;;;;;;;;;;;;;13.61;61.01;101723.16;4964862;28;2311;-74
2023/05/21 10:01:01;;;;;;;;;;;;;;;13.62;60.99;101719.41;4948281;28;2203;-74
2023/05/21 10:03:27;;;;;;;;;;;;;;;13.62;61.20;101716.72;4964912;28;2099;-74
2023/05/21 10:05:54;;;;;;;;;;;;;;;13.63;61.08;101712.94;4957047;28;2513;-74
2023/05/21 10:08:20;;;;;;;;;;;;;;;13.64;61.12;101709.19;4964504;28;2189;-74
2023/05/21 10:10:47;;;;;;;;;;;;;;;13.66;61.03;101711.69;4964500;28;2188;-75
2023/05/21 10:13:14;;;;;;;;;;;;;;;13.66;61.21;101703.59;4964218;28;2221;-75
2023/05/21 10:15:40;;;;;;;;;;;;;;;13.68;60.86;101703.34;4963189;28;2802;-73
2023/05/21 10:18:07;;;;;;;;;;;;;;;13.70;60.63;101706.69;4963654;28;2256;-75
2023/05/21 10:20:33;;;;;;;;;;;;;;;13.69;60.89;101703.16;4965463;28;2213;-75
2023/05/21 10:23:00;;;;;;;;;;;;;;;13.72;60.63;101694.59;4965584;28;2153;-73
2023/05/21 10:25:26;;;;;;;;;;;;;;;13.72;60.24;101693.78;4965388;28;2269;-75
2023/05/21 10:27:53;;;;;;;;;;;;;;;13.73;60.45;101701.69;4963596;28;2217;-74
2023/05/21 10:30:19;;;;;;;;;;;;;;;13.74;60.74;101702.53;4964797;28;2194;-75
2023/05/21 10:32:46;;;;;;;;;;;;;;;13.75;60.92;101701.47;4964072;28;2193;-74
2023/05/21 10:35:13;;;;;;;;;;;;;;;13.76;60.91;101703.13;4964455;28;2198;-75
2023/05/21 10:37:39;;;;;;;;;;;;;;;13.77;61.16;101700.22;4965278;28;2410;-75
2023/05/21 10:40:06;;;;;;;;;;;;;;;13.79;60.78;101700.00;4964645;28;2329;-74
2023/05/21 10:42:32;;;;;;;;;;;;;;;13.80;60.39;101699.78;4965294;28;2141;-74
2023/05/21 10:44:59;;;;;;;;;;;;;;;13.81;60.50;101689.78;4963959;28;2158;-74
2023/05/21 10:47:26;;;;;;;;;;;;;;;13.82;60.80;101678.75;4963088;28;2254;-75
2023/05/21 10:49:52;;;;;;;;;;;;;;;13.84;60.82;101684.78;4964872;28;2146;-74
2023/05/21 10:52:19;;;;;;;;;;;;;;;13.84;61.12;101686.66;4964971;28;2241;-75
2023/05/21 10:54:46;;;;;;;;;;;;;;;13.85;60.89;101685.59;4964477;28;2034;-74
2023/05/21 10:57:12;;;;;;;;;;;;;;;13.87;60.54;101686.22;4962033;28;2208;-74
2023/05/21 10:59:39;;;;;;;;;;;;;;;13.89;60.47;101686.03;4963212;28;2420;-73
2023/05/21 11:02:05;;;;;;;;;;;;;;;13.89;60.67;101680.59;4963023;28;2258;-74
2023/05/21 11:04:33;;;;;;;;;;;;;;;13.90;60.59;101680.38;4965464;28;2209;-74
2023/05/21 11:07:00;;;;;;;;;;;;;;;13.93;60.88;101679.13;4963015;28;2218;-74
2023/05/21 11:09:26;;;;;;;;;;;;;;;13.92;61.17;101678.31;4964756;28;2130;-75
2023/05/21 11:11:53;;;;;;;;;;;;;;;13.94;61.16;101681.63;4964736;28;2292;-75
2023/05/21 11:14:19;;;;;;;;;;;;;;;13.96;61.21;101676.81;4964131;28;2078;-73
2023/05/21 11:16:46;;;;;;;;;;;;;;;13.96;61.48;101676.81;4963483;28;2201;-74
2023/05/21 11:19:12;;;;;;;;;;;;;;;13.98;61.33;101680.16;4960611;28;2285;-74
2023/05/21 11:21:39;;;;;;;;;;;;;;;13.99;61.59;101670.97;4945452;29;2117;-74
2023/05/21 11:24:07;;;;;;;;;;;;;;;14.00;61.65;101667.22;4934862;29;2505;-75
2023/05/21 11:26:34;;;;;;;;;;;;;;;14.01;61.43;101660.75;4929289;29;2166;-75
2023/05/21 11:29:00;;;;;;;;;;;;;;;14.02;61.27;101662.41;4943225;28;2406;-75
2023/05/21 11:31:36;;;;;;;;;;;;;;;14.05;61.13;101666.56;4927044;29;2316;-76
2023/05/21 11:34:03;;;;;;;;;;;;;;;14.05;61.09;101661.97;4942750;29;5020;-75
2023/05/21 11:36:30;;;;;;;;;;;;;;;14.07;61.26;101659.88;4943899;28;3836;-75
2023/05/21 11:38:56;;;;;;;;;;;;;;;14.09;61.44;101656.97;4945557;29;3882;-74
2023/05/21 11:41:23;;;;;;;;;;;;;;;14.09;61.57;101656.97;4928930;29;1351;-73
2023/05/21 11:43:50;;;;;;;;;;;;;;;14.11;61.63;101654.88;4928847;29;2197;-74
2023/05/21 11:46:17;;;;;;;;;;;;;;;14.12;61.58;101650.28;4944749;29;2097;-75
2023/05/21 11:48:43;;;;;;;;;;;;;;;14.14;61.53;101648.19;4944681;29;2200;-73
2023/05/21 11:51:10;;;;;;;;;;;;;;;14.15;61.70;101645.28;4942645;28;3223;-73
2023/05/21 11:53:38;;;;;;;;;;;;;;;14.16;61.78;101646.94;4945165;29;2292;-74
2023/05/21 11:56:08;;;;;;;;;;;;;;;14.18;62.00;101639.41;4943553;28;2389;-75
2023/05/21 11:58:35;;;;;;;;;;;;;;;14.20;61.71;101647.31;4943060;28;2017;-73
2023/05/21 12:01:01;;;;;;;;;;;;;;;14.20;61.98;101631.06;4938708;28;2188;-74
2023/05/21 12:03:29;;;;;;;;;;;;;;;14.23;61.93;101641.47;4941146;28;2227;-73
2023/05/21 12:05:56;;;;;;;;;;;;;;;14.23;61.75;101631.44;4941999;29;2125;-74
2023/05/21 12:08:24;;;;;;;;;;;;;;;14.58;61.40;101636.47;4942205;28;1976;-74
2023/05/21 12:10:51;;;;;;;;;;;;;;;14.47;61.43;101640.69;4942838;29;2095;-75
2023/05/21 12:13:17;;;;;;;;;;;;;;;14.40;61.14;101636.34;4942270;29;2108;-75
2023/05/21 12:15:44;;;;;;;;;;;;;;;14.38;60.61;101639.28;4923204;29;1920;-74
2023/05/21 12:18:10;;;;;;;;;;;;;;;14.37;60.48;101637.63;4941247;29;1739;-74
2023/05/21 12:20:37;;;;;;;;;;;;;;;14.37;60.54;101645.75;4940757;28;2066;-74
2023/05/21 12:23:03;;;;;;;;;;;;;;;14.39;60.52;101646.38;4942614;28;2103;-74
2023/05/21 12:25:30;;;;;;;;;;;;;;;14.40;60.65;101645.31;4941124;29;2129;-74
2023/05/21 12:27:57;;;;;;;;;;;;;;;14.41;60.45;101644.28;4939531;28;2145;-74
2023/05/21 12:30:23;;;;;;;;;;;;;;;14.42;60.53;101636.97;4936941;28;2150;-74
2023/05/21 12:32:50;;;;;;;;;;;;;;;14.44;60.59;101645.69;4943407;29;2009;-75
2023/05/21 12:35:16;;;;;;;;;;;;;;;14.45;60.46;101642.78;4942513;29;2135;-74
2023/05/21 12:37:43;;;;;;;;;;;;;;;14.46;60.41;101638.19;4941372;29;2204;-74
2023/05/21 12:40:10;;;;;;;;;;;;;;;14.48;60.02;101642.34;4941595;29;2081;-74
2023/05/21 12:42:38;;;;;;;;;;;;;;;14.50;60.07;101647.53;4942065;29;1945;-74
2023/05/21 12:45:05;;;;;;;;;;;;;;;14.52;60.10;101637.34;4924196;28;2098;-74